Faisalabad Weather



Faisalabad's Current Weather

Temprature 41.44o scattered clouds

scattered clouds

Rain: 0 %

Min Temprature41.44o
Max Temprature41.44o
Humidity27
Wind Speed1.12 m/h
Sun Rise05:18:45
Sun Set19:09:15
Current Time: 24-Jul-2021 15:23:01
Lat/Lon: 31.4167, 73.0833




Faisalabad's Geo Location



Faisalabad's Weather Forecast

Time Overall Temp Min Temp Max Temp Humidity Wind Speed Rain
24-Jul-2021 (Sat)
17:00:00 scattered clouds 41.600 40.990 41.600 28 2.52 m/h 0 %
20:00:00 few clouds 39.880 38.870 39.880 31 2.8 m/h 0 %
23:00:00 few clouds 36.800 36.800 36.800 40 4.16 m/h 0 %
25-Jul-2021 (Sun)
02:00:00 clear sky 35.390 35.390 35.390 44 2.68 m/h 0 %
05:00:00 clear sky 34.430 34.430 34.430 47 2.74 m/h 0 %
08:00:00 overcast clouds 37.580 37.580 37.580 40 3.1 m/h 0 %
11:00:00 broken clouds 41.930 41.930 41.930 29 2.12 m/h 0 %
14:00:00 few clouds 44.670 44.670 44.670 21 1.48 m/h 0 %
17:00:00 few clouds 44.530 44.530 44.530 20 1.63 m/h 0 %
20:00:00 scattered clouds 40.620 40.620 40.620 30 4.69 m/h 0 %
23:00:00 broken clouds 38.050 38.050 38.050 39 5.9 m/h 0 %
26-Jul-2021 (Mon)
02:00:00 broken clouds 35.710 35.710 35.710 48 5.26 m/h 0 %
05:00:00 broken clouds 34.700 34.700 34.700 51 3.74 m/h 0 %
08:00:00 scattered clouds 38.070 38.070 38.070 38 3.37 m/h 0 %
11:00:00 broken clouds 42.270 42.270 42.270 28 3.07 m/h 0 %
14:00:00 broken clouds 45.120 45.120 45.120 22 2.78 m/h 0 %
17:00:00 overcast clouds 43.990 43.990 43.990 23 2.15 m/h 0 %
20:00:00 overcast clouds 39.950 39.950 39.950 33 6.4 m/h 0 %
23:00:00 overcast clouds 37.820 37.820 37.820 37 5.4 m/h 0 %
27-Jul-2021 (Tue)
02:00:00 overcast clouds 36.260 36.260 36.260 41 4.32 m/h 0 %
05:00:00 overcast clouds 34.320 34.320 34.320 47 5.23 m/h 0 %
08:00:00 broken clouds 34.400 34.400 34.400 50 5.66 m/h 0 %
11:00:00 broken clouds 38.180 38.180 38.180 39 4.2 m/h 0 %
14:00:00 broken clouds 40.760 40.760 40.760 32 4.6 m/h 0 %
17:00:00 broken clouds 40.220 40.220 40.220 32 6.06 m/h 0 %
20:00:00 broken clouds 36.770 36.770 36.770 40 6.59 m/h 0 %
23:00:00 broken clouds 33.680 33.680 33.680 50 6.8 m/h 0 %
28-Jul-2021 (Wed)
02:00:00 light rain 32.190 32.190 32.190 55 5.64 m/h 12 %
05:00:00 scattered clouds 31.040 31.040 31.040 61 4.1 m/h 0 %
08:00:00 broken clouds 32.380 32.380 32.380 56 4.65 m/h 0 %
11:00:00 broken clouds 35.360 35.360 35.360 48 5.13 m/h 0 %
14:00:00 overcast clouds 36.060 36.060 36.060 45 5.99 m/h 0 %
17:00:00 overcast clouds 34.760 34.760 34.760 49 5.65 m/h 0 %
20:00:00 overcast clouds 31.990 31.990 31.990 59 5.73 m/h 0 %
23:00:00 overcast clouds 30.100 30.100 30.100 67 4.33 m/h 0 %
29-Jul-2021 (Thu)
02:00:00 moderate rain 27.930 27.930 27.930 79 1.85 m/h 385 %
05:00:00 moderate rain 28.460 28.460 28.460 77 2.7 m/h 314 %
08:00:00 scattered clouds 30.730 30.730 30.730 67 2.75 m/h 0 %
11:00:00 broken clouds 35.040 35.040 35.040 50 1.34 m/h 0 %
14:00:00 scattered clouds 38.460 38.460 38.460 40 0.27 m/h 0 %


Faisalabad's Tourist Spots

Parks and Zoos in Faisalabad

Famous Cities (60)